Latest Coastal Weather Observations for Warruwi

IDD60701

Issued at 9:51 pm CST Friday 20 October 2017 (issued every 10 minutes, with the page automatically refreshed every 10 minutes)

About coastal observations | Map of coastal stations | Coastal observations for NT | Marine services | Other Formats
Station Details ID: 014401 Name: WARRUWI AIRPORT Lat: -11.65 Lon: 133.38 Height: 19.2 m
Data from the previous 72 hours. | See also: Recent months at Warruwi
Date/Time
CST
Temp
°C
Wind Pressure Rain since
9am
mm
Weather Cloud Vis
km
Sea
Height
m
Swell
Dir  Spd
kts
Gust
kts
hPa Trend Height
m
Period
s
Dir
20/09:30pm 28.0 NE 3 6 1012.1 - 0.0 - - - - - - -
20/09:00pm 28.2 NE 4 8 1012.0 - 0.0 - - - - - - -
20/08:30pm 28.3 NE 4 7 1011.6 - 0.0 - - - - - - -
20/08:00pm 28.4 NE 4 7 1011.4 - 0.0 - - - - - - -
20/07:30pm 28.6 NE 3 7 1011.2 - 0.0 - - - - - - -
20/07:00pm 28.7 NE 5 9 1010.6 - 0.0 - - - - - - -
20/06:30pm 28.9 NE 5 10 1010.1 - 0.0 - - - - - - -
20/06:00pm 29.6 ENE 7 11 1009.6 - 0.0 - - - - - - -
20/05:30pm 30.2 NE 7 13 1009.5 - 0.0 - - - - - - -
20/05:00pm 30.8 NE 9 14 1009.4 - 0.0 - - - - - - -
20/04:30pm 31.7 ENE 8 14 1009.5 - 0.0 - - - - - - -
20/04:00pm 32.2 ENE 8 15 1009.7 - 0.0 - - - - - - -
20/03:30pm 32.5 NE 8 13 1010.1 - 0.0 - - - - - - -
20/03:00pm 32.1 NE 9 14 1010.5 - 0.0 - - - - - - -
20/02:30pm 32.0 ENE 7 11 1010.7 - 0.0 - - - - - - -
20/02:00pm 31.8 NE 6 13 1011.0 - 0.0 - - - - - - -
20/01:30pm 31.9 ENE 8 14 1011.4 - 0.0 - - - - - - -
20/01:00pm 32.1 ENE 8 12 1011.7 - 0.0 - - - - - - -
20/12:30pm 32.0 E 8 11 1012.1 - 0.0 - - - - - - -
20/12:00pm 31.1 ENE 7 9 1012.5 - 0.0 - - - - - - -
20/11:30am 31.1 E 6 9 1012.9 - 0.0 - - - - - - -
20/11:00am 30.8 ENE 6 9 1013.0 - 0.0 - - - - - - -
20/10:30am 30.9 E 6 8 1013.1 - 0.0 - - - - - - -
20/10:00am 30.2 W 2 4 1013.2 - 0.0 - - - - - - -
20/09:30am 28.9 WNW 3 4 1013.1 - 0.0 - - - - - - -
20/09:00am 28.5 W 4 5 1013.0 - 0.0 - - - - - - -
20/08:30am 28.3 SW 3 3 1012.9 - 0.0 - - - - - - -
20/08:00am 28.5 SSW 3 4 1012.7 - 0.0 - - - - - - -
20/07:30am 27.1 CALM 0 0 1012.3 - 0.0 - - - - - - -
20/07:00am 26.2 CALM 0 0 1012.0 - 0.0 - - - - - - -
20/06:30am 25.4 CALM 0 0 1011.5 - 0.0 - - - - - - -
20/06:00am 25.3 CALM 0 0 1011.2 - 0.0 - - - - - - -
20/05:30am 25.2 CALM 0 0 1010.8 - 0.0 - - - - - - -
20/05:00am 25.2 CALM 0 0 1010.5 - 0.0 - - - - - - -
20/04:30am 25.4 CALM 0 0 1010.4 - 0.0 - - - - - - -
20/04:00am 25.7 CALM 0 1 1010.2 - 0.0 - - - - - - -
20/03:30am 25.7 N 1 1 1010.2 - 0.0 - - - - - - -
20/03:00am 25.9 CALM 0 2 1010.3 - 0.0 - - - - - - -
20/02:30am 25.8 CALM 0 2 1010.3 - 0.0 - - - - - - -
20/02:00am 26.1 CALM 0 0 1010.4 - 0.0 - - - - - - -
20/01:30am 26.6 NNE 1 3 1010.6 - 0.0 - - - - - - -
20/01:00am 27.3 NE 2 3 1010.8 - 0.0 - - - - - - -
20/12:30am 27.5 NE 2 5 1011.0 - 0.0 - - - - - - -
20/12:00am 27.8 NE 3 5 1011.3 - 0.0 - - - - - - -
 
Date/Time
CST
Temp
°C
Wind Pressure Rain since
9am
mm
Weather Cloud Vis
km
Sea
Height
m
Swell
Dir  Spd
kts
Gust
kts
hPa Trend Height
m
Period
s
Dir
19/11:30pm 27.6 NE 2 5 1011.5 - 0.0 - - - - - - -
19/11:00pm 27.6 NE 2 4 1011.5 - 0.0 - - - - - - -
19/10:30pm 27.7 NNE 2 4 1011.4 - 0.0 - - - - - - -
19/10:00pm 28.0 NE 4 7 1011.2 - 0.0 - - - - - - -
19/09:30pm 28.0 NNE 3 7 1010.7 - 0.0 - - - - - - -
19/09:00pm 28.0 NE 3 5 1010.3 - 0.0 - - - - - - -
19/08:30pm 28.2 NE 3 5 1010.0 - 0.0 - - - - - - -
19/08:00pm 28.4 NE 3 6 1009.7 - 0.0 - - - - - - -
19/07:30pm 28.6 NNE 3 4 1009.2 - 0.0 - - - - - - -
19/07:00pm 29.0 NE 3 7 1008.9 - 0.0 - - - - - - -
19/06:30pm 29.7 NE 5 7 1008.3 - 0.0 - - - - - - -
19/06:00pm 30.3 NNE 5 8 1007.9 - 0.0 - - - - - - -
19/05:30pm 31.1 NNE 4 7 1007.7 - 0.0 - - - - - - -
19/05:00pm 31.5 N 5 10 1007.5 - 0.0 - - - - - - -
19/04:30pm 32.3 NNE 6 13 1007.5 - 0.0 - - - - - - -
19/04:00pm 33.0 NNE 6 11 1007.4 - 0.0 - - - - - - -
19/03:30pm 33.4 NE 5 9 1007.5 - 0.0 - - - - - - -
19/03:00pm 33.2 E 7 9 1007.6 - 0.0 - - - - - - -
19/02:30pm 32.4 E 6 9 1007.8 - 0.0 - - - - - - -
19/02:00pm 32.8 E 5 7 1008.2 - 0.0 - - - - - - -
19/01:30pm 32.1 E 6 10 1008.6 - 0.0 - - - - - - -
19/01:00pm 31.8 ESE 6 9 1009.1 - 0.0 - - - - - - -
19/12:30pm 31.4 E 7 10 1009.7 - 0.0 - - - - - - -
19/12:00pm 31.7 E 5 8 1010.2 - 0.0 - - - - - - -
19/11:30am 31.6 ESE 5 8 1010.5 - 0.0 - - - - - - -
19/11:00am 31.5 ESE 6 9 1010.6 - 0.0 - - - - - - -
19/10:30am 31.1 ESE 5 8 1010.8 - 0.0 - - - - - - -
19/10:00am 30.8 E 5 8 1010.9 - 0.0 - - - - - - -
19/09:30am 30.3 NNE 5 9 1011.0 - 0.0 - - - - - - -
19/09:00am 30.2 NE 4 7 1010.9 - 0.0 - - - - - - -
19/08:30am 30.0 ENE 4 6 1010.8 - 0.0 - - - - - - -
19/08:00am 29.2 NNE 4 8 1010.6 - 0.0 - - - - - - -
19/07:30am 28.9 NNE 2 4 1010.3 - 0.0 - - - - - - -
19/07:00am 28.1 NE 2 4 1009.9 - 0.0 - - - - - - -
19/06:30am 27.3 NE 1 3 1009.5 - 0.0 - - - - - - -
19/06:00am 27.4 NE 2 3 1009.3 - 0.0 - - - - - - -
19/05:30am 27.7 ENE 3 4 1009.1 - 0.0 - - - - - - -
19/05:00am 27.9 NE 3 5 1008.7 - 0.0 - - - - - - -
19/04:30am 28.3 NE 3 5 1008.3 - 0.0 - - - - - - -
19/04:00am 28.4 E 4 6 1008.0 - 0.0 - - - - - - -
19/03:30am 28.3 ENE 3 6 1007.9 - 0.0 - - - - - - -
19/03:00am 28.0 ENE 3 5 1007.8 - 0.0 - - - - - - -
19/02:30am 27.8 NE 2 5 1008.0 - 0.0 - - - - - - -
19/02:00am 28.1 NE 3 6 1008.2 - 0.0 - - - - - - -
19/01:30am 28.2 E 6 10 1008.6 - 0.0 - - - - - - -
19/01:00am 28.3 ENE 7 11 1009.1 - 0.0 - - - - - - -
19/12:30am 28.2 ENE 7 11 1009.3 - 0.0 - - - - - - -
19/12:00am 28.3 ENE 7 13 1009.6 - 0.0 - - - - - - -
 
Date/Time
CST
Temp
°C
Wind Pressure Rain since
9am
mm
Weather Cloud Vis
km
Sea
Height
m
Swell
Dir  Spd
kts
Gust
kts
hPa Trend Height
m
Period
s
Dir
18/11:30pm 28.6 ENE 6 9 1010.0 - 0.0 - - - - - - -
18/11:00pm 28.6 ENE 5 9 1010.2 - 0.0 - - - - - - -
18/10:30pm 28.3 NNE 5 9 1009.1 - 0.0 - - - - - - -
18/10:00pm 28.2 N 4 9 1009.0 - 0.0 - - - - - - -
18/09:30pm 28.3 NNE 3 4 1009.2 - 0.0 - - - - - - -
18/09:00pm 28.4 NNE 1 3 1009.4 - 0.0 - - - - - - -
18/08:30pm 28.4 NE 2 3 1009.3 - 0.0 - - - - - - -
18/08:00pm 28.5 NE 1 3 1008.9 - 0.0 - - - - - - -
18/07:30pm 28.5 N 3 5 1008.3 - 0.0 - - - - - - -
18/07:00pm 28.6 N 2 5 1007.7 - 0.0 - - - - - - -
18/06:30pm 28.7 N 3 7 1007.3 - 0.0 - - - - - - -
18/06:00pm 29.1 NNE 4 7 1007.1 - 0.0 - - - - - - -
18/05:30pm 29.5 N 6 10 1006.7 - 0.0 - - - - - - -
18/05:00pm 29.9 NNE 6 9 1006.3 - 0.0 - - - - - - -
18/04:30pm 29.7 NNE 6 9 1006.3 - 0.0 - - - - - - -
18/04:00pm 30.1 NNE 5 10 1006.0 - 0.0 - - - - - - -
18/03:30pm 30.9 NNE 5 9 1006.1 - 0.0 - - - - - - -
18/03:00pm 31.0 NE 5 9 1006.5 - 0.0 - - - - - - -
18/02:30pm 31.0 E 6 8 1007.1 - 0.0 - - - - - - -
18/02:00pm 31.3 E 6 8 1007.4 - 0.0 - - - - - - -
18/01:30pm 31.4 E 8 11 1007.8 - 0.0 - - - - - - -
18/01:00pm 31.8 ENE 6 9 1008.1 - 0.0 - - - - - - -
18/12:30pm 31.5 ESE 7 9 1008.8 - 0.0 - - - - - - -
18/12:00pm 30.9 E 6 9 1009.2 - 0.0 - - - - - - -
18/11:30am 30.6 E 7 10 1009.9 - 0.0 - - - - - - -
18/11:00am 30.7 E 6 8 1010.2 - 0.0 - - - - - - -
18/10:30am 30.1 E 6 9 1010.4 - 0.0 - - - - - - -
18/10:00am 30.2 E 5 9 1010.6 - 0.0 - - - - - - -
18/09:30am 30.1 E 4 6 1010.6 - 0.0 - - - - - - -
18/09:00am 29.2 E 4 6 1010.7 - 5.8 - - - - - - -
18/08:30am 28.3 ESE 4 5 1010.6 - 5.8 - - - - - - -
18/08:00am 27.0 SE 3 4 1010.6 - 5.8 - - - - - - -
18/07:30am 26.4 SSW 3 5 1010.3 - 5.8 - - - - - - -
18/07:00am 26.1 S 2 3 1009.7 - 5.8 - - - - - - -
18/06:30am 25.6 CALM 0 0 1009.3 - 5.8 - - - - - - -
18/06:00am 25.5 CALM 0 0 1009.1 - 5.8 - - - - - - -
18/05:30am 25.6 CALM 0 0 1008.8 - 5.8 - - - - - - -
18/05:00am 25.6 NE 1 1 1008.1 - 5.8 - - - - - - -
18/04:30am 25.7 NE 2 3 1007.6 - 5.8 - - - - - - -
18/04:00am 25.4 ENE 1 3 1007.5 - 5.8 - - - - - - -
18/03:30am 25.5 CALM 0 0 1007.4 - 5.8 - - - - - - -
18/03:00am 25.9 CALM 0 2 1007.6 - 5.8 - - - - - - -
18/02:30am 26.0 SSE 2 3 1007.8 - 5.8 - - - - - - -
18/02:00am 26.1 CALM 0 1 1008.2 - 5.8 - - - - - - -
18/01:30am 26.3 SSE 3 5 1008.4 - 5.8 - - - - - - -
18/01:00am 26.1 SE 2 5 1008.7 - 5.8 - - - - - - -
18/12:30am 26.0 SE 1 3 1008.8 - 5.8 - - - - - - -
18/12:00am 25.9 SE 3 3 1009.2 - 5.8 - - - - - - -
 
Date/Time
CST
Temp
°C
Wind Pressure Rain since
9am
mm
Weather Cloud Vis
km
Sea
Height
m
Swell
Dir  Spd
kts
Gust
kts
hPa Trend Height
m
Period
s
Dir
17/11:30pm 25.7 SE 7 10 1009.4 - 5.8 - - - - - - -
17/11:00pm 26.9 SE 4 7 1009.2 - 5.8 - - - - - - -
17/10:30pm 26.6 NW 1 3 1008.3 - 5.8 - - - - - - -
17/10:00pm 26.4 W 1 3 1007.7 - 5.8 - - - - - - -

Other Formats:

Comma delimited format used in spreadsheet applications
http://www.bom.gov.au/fwo/IDD60701/IDD60701.94139.axf

JavaScript Object Notation format (JSON) in row-major order
http://www.bom.gov.au/fwo/IDD60701/IDD60701.94139.json